Bishop, CA

12:46 PM PDT on September 18, 2014 (GMT -0700)
Wilkerson | Change Station
CLOSE
Current Station
Personal Weather Station
Location: Bishop, CA
Elevation: 4446 ft
Nearby Weather Stations

Elev 4446 ft 37.29 °N, 118.39 °W | Updated 2 seconds ago

Clear
Clear
87.4 °F
Feels Like 84 °F
N
5.0
Wind Variable Wind from ESE
Gusts 13.0 mph

Today
High -- | Low -- °F
--% Chance of Precip.
Yesterday
High -- | Low -- °F
Precip. -- in
6:38 AM 6:56 PM
Waning Crescent, 25% visible
Pressure 29.66 in
Visibility 10.0 miles
Clouds Clear
Heat Index 84 °F
Dew Point 24 °F
Humidity 10%
Rainfall 0.00 in
Snow Depth 0 in , 0 in , 0 in
UV 9 out of 12
Pollen 6.00 out of 12
Air Quality Not available.
Flu Activity Not available.
METAR KBIH 181856Z AUTO 15007KT 120V190 10SM CLR 31/M04 A2983 RMK AO2 SLP044 T03111044

More Conditions Fewer Conditions

Pressure 29.66 in
Visibility 10.0 miles
Clouds Clear
Heat Index 84 °F
Dew Point 24 °F
Humidity 10%
Rainfall 0.00 in
Snow Depth 0 in , 0 in , 0 in
UV 9 out of 12
Pollen 6.00 out of 12
Air Quality Not available.
Flu Activity Not available.
METAR KBIH 181856Z AUTO 15007KT 120V190 10SM CLR 31/M04 A2983 RMK AO2 SLP044 T03111044

More Conditions Fewer Conditions

10-Day Weather Forecast

Almanac

Astronomy

Sep. 18, 2014 Rise Set
Actual Time 6:38 AM PDT 6:56 PM PDT
Civil Twilight 6:12 AM PDT 7:22 PM PDT
Nautical Twilight 5:41 AM PDT 7:53 PM PDT
Astronomical Twilight 5:10 AM PDT 8:24 PM PDT
Moon 1:39 AM PDT 3:46 PM PDT
Length of Visible Light 13h 10m
Length of Day
12h 18m
Tomorrow will be 2m 22s shorter.
Waning Crescent, 25% of the Moon is Illuminated
Today
Waning Crescent
Sep 24
New
Oct 1
First Quarter
Oct 8
Full
Oct 15
Last Quarter

Today's Extremes

State Highs State Lows

Community

WunderPhotos

Upload Photos

1,754,421 photos uploaded!

WunderBlogs® & News

By Dr. Jeff Masters
Director of Meteorology, Weather Underground
By Kari Strenfel
Meteorologist, Weather Underground
By Christopher C. Burt
Weather Historian, Weather Underground
September 18, 2014
September 18, 2014
September 18, 2014

Nearby

Snow Depth

Station Depth Elevation
Forestdale Creek 0 in 8029 ft
Echo Peak 0 in 7800 ft
Rubicon #2 0 in 7500 ft
Tahoe City Cross 0 in 6750 ft
Summit Meadow 0 in 9122 ft

Earthquake Activity

City Distance Mag. Time & Date
No recent earthquake activity has been reported nearby.
Minimum magnitude displayed is 2.5.

Coastal Water Temperatures

Place Temperature
No Stations Reporting

Nearby Weather Stations